sensor_id;sensor_type;location;lat;lon;timestamp;temperature;humidity
16479;DHT22;8350;52.316;10.530;2023-07-13T00:02:24;17.80;99.90
16479;DHT22;8350;52.316;10.530;2023-07-13T00:04:52;17.80;99.90
16479;DHT22;8350;52.316;10.530;2023-07-13T00:07:19;17.80;99.90
16479;DHT22;8350;52.316;10.530;2023-07-13T00:09:48;17.80;99.90
16479;DHT22;8350;52.316;10.530;2023-07-13T00:12:27;17.80;99.90
16479;DHT22;8350;52.316;10.530;2023-07-13T00:14:56;17.90;99.90
16479;DHT22;8350;52.316;10.530;2023-07-13T00:17:23;17.90;99.90
16479;DHT22;8350;52.316;10.530;2023-07-13T00:19:50;18.00;99.90
16479;DHT22;8350;52.316;10.530;2023-07-13T00:22:19;18.00;99.90
16479;DHT22;8350;52.316;10.530;2023-07-13T00:24:51;18.00;99.90
16479;DHT22;8350;52.316;10.530;2023-07-13T00:27:18;18.00;99.90
16479;DHT22;8350;52.316;10.530;2023-07-13T00:29:51;18.00;99.90
16479;DHT22;8350;52.316;10.530;2023-07-13T00:32:18;18.00;99.90
16479;DHT22;8350;52.316;10.530;2023-07-13T00:34:45;18.00;99.90
16479;DHT22;8350;52.316;10.530;2023-07-13T00:37:12;18.00;99.90
16479;DHT22;8350;52.316;10.530;2023-07-13T00:39:39;18.00;99.90
16479;DHT22;8350;52.316;10.530;2023-07-13T00:42:10;18.00;99.90
16479;DHT22;8350;52.316;10.530;2023-07-13T00:44:37;18.00;99.90
16479;DHT22;8350;52.316;10.530;2023-07-13T00:47:06;17.90;99.90
16479;DHT22;8350;52.316;10.530;2023-07-13T00:49:35;17.90;99.90
16479;DHT22;8350;52.316;10.530;2023-07-13T00:52:06;17.90;99.90
16479;DHT22;8350;52.316;10.530;2023-07-13T00:54:36;17.90;99.90
16479;DHT22;8350;52.316;10.530;2023-07-13T00:57:08;17.90;99.90
16479;DHT22;8350;52.316;10.530;2023-07-13T00:59:40;17.80;99.90
16479;DHT22;8350;52.316;10.530;2023-07-13T01:02:10;17.70;99.90
16479;DHT22;8350;52.316;10.530;2023-07-13T01:04:38;17.70;99.90
16479;DHT22;8350;52.316;10.530;2023-07-13T01:07:07;17.60;99.90
16479;DHT22;8350;52.316;10.530;2023-07-13T01:09:39;17.70;99.90
16479;DHT22;8350;52.316;10.530;2023-07-13T01:12:08;17.60;99.90
16479;DHT22;8350;52.316;10.530;2023-07-13T01:14:36;17.60;99.90
16479;DHT22;8350;52.316;10.530;2023-07-13T01:17:04;17.70;99.90
16479;DHT22;8350;52.316;10.530;2023-07-13T01:19:35;17.60;99.90
16479;DHT22;8350;52.316;10.530;2023-07-13T01:22:04;17.60;99.90
16479;DHT22;8350;52.316;10.530;2023-07-13T01:24:34;17.60;99.90
16479;DHT22;8350;52.316;10.530;2023-07-13T01:27:02;17.60;99.90
16479;DHT22;8350;52.316;10.530;2023-07-13T01:29:30;17.60;99.90
16479;DHT22;8350;52.316;10.530;2023-07-13T01:31:57;17.60;99.90
16479;DHT22;8350;52.316;10.530;2023-07-13T01:34:26;17.60;99.90
16479;DHT22;8350;52.316;10.530;2023-07-13T01:36:55;17.60;99.90
16479;DHT22;8350;52.316;10.530;2023-07-13T01:39:26;17.60;99.90
16479;DHT22;8350;52.316;10.530;2023-07-13T01:41:53;17.50;99.90
16479;DHT22;8350;52.316;10.530;2023-07-13T01:44:20;17.50;99.90
16479;DHT22;8350;52.316;10.530;2023-07-13T01:46:47;17.60;99.90
16479;DHT22;8350;52.316;10.530;2023-07-13T01:49:14;17.60;99.90
16479;DHT22;8350;52.316;10.530;2023-07-13T01:51:41;17.50;99.90
16479;DHT22;8350;52.316;10.530;2023-07-13T01:54:08;17.50;99.90
16479;DHT22;8350;52.316;10.530;2023-07-13T01:56:37;17.40;99.90
16479;DHT22;8350;52.316;10.530;2023-07-13T01:59:07;17.40;99.90
16479;DHT22;8350;52.316;10.530;2023-07-13T02:01:34;17.40;99.90
16479;DHT22;8350;52.316;10.530;2023-07-13T02:04:01;17.30;99.90
16479;DHT22;8350;52.316;10.530;2023-07-13T02:06:28;17.40;99.90
16479;DHT22;8350;52.316;10.530;2023-07-13T02:08:55;17.30;99.90
16479;DHT22;8350;52.316;10.530;2023-07-13T02:11:25;17.30;99.90
16479;DHT22;8350;52.316;10.530;2023-07-13T02:13:59;17.20;99.90
16479;DHT22;8350;52.316;10.530;2023-07-13T02:16:26;17.20;99.90
16479;DHT22;8350;52.316;10.530;2023-07-13T02:18:53;17.10;99.90
16479;DHT22;8350;52.316;10.530;2023-07-13T02:21:21;17.00;99.90
16479;DHT22;8350;52.316;10.530;2023-07-13T02:23:48;17.00;99.90
16479;DHT22;8350;52.316;10.530;2023-07-13T02:26:16;16.90;99.90
16479;DHT22;8350;52.316;10.530;2023-07-13T02:28:43;16.90;99.90
16479;DHT22;8350;52.316;10.530;2023-07-13T02:31:14;16.80;99.90
16479;DHT22;8350;52.316;10.530;2023-07-13T02:33:41;16.60;99.90
16479;DHT22;8350;52.316;10.530;2023-07-13T02:36:09;16.60;99.90
16479;DHT22;8350;52.316;10.530;2023-07-13T02:38:36;16.60;99.90
16479;DHT22;8350;52.316;10.530;2023-07-13T02:41:03;16.60;99.90
16479;DHT22;8350;52.316;10.530;2023-07-13T02:43:31;16.50;99.90
16479;DHT22;8350;52.316;10.530;2023-07-13T02:46:01;16.50;99.90
16479;DHT22;8350;52.316;10.530;2023-07-13T02:48:34;16.50;99.90
16479;DHT22;8350;52.316;10.530;2023-07-13T02:51:00;16.50;99.90
16479;DHT22;8350;52.316;10.530;2023-07-13T02:53:27;16.60;99.90
16479;DHT22;8350;52.316;10.530;2023-07-13T02:55:54;16.50;99.90
16479;DHT22;8350;52.316;10.530;2023-07-13T02:58:21;16.50;99.90
16479;DHT22;8350;52.316;10.530;2023-07-13T03:00:48;16.50;99.90
16479;DHT22;8350;52.316;10.530;2023-07-13T03:03:16;16.40;99.90
16479;DHT22;8350;52.316;10.530;2023-07-13T03:05:45;16.30;99.90
16479;DHT22;8350;52.316;10.530;2023-07-13T03:08:16;16.30;99.90
16479;DHT22;8350;52.316;10.530;2023-07-13T03:10:44;16.30;99.90
16479;DHT22;8350;52.316;10.530;2023-07-13T03:13:11;16.20;99.90
16479;DHT22;8350;52.316;10.530;2023-07-13T03:15:38;16.10;99.90
16479;DHT22;8350;52.316;10.530;2023-07-13T03:18:05;16.10;99.90
16479;DHT22;8350;52.316;10.530;2023-07-13T03:20:33;15.90;99.90
16479;DHT22;8350;52.316;10.530;2023-07-13T03:23:01;15.90;99.90
16479;DHT22;8350;52.316;10.530;2023-07-13T03:25:28;15.90;99.90
16479;DHT22;8350;52.316;10.530;2023-07-13T03:27:55;15.90;99.90
16479;DHT22;8350;52.316;10.530;2023-07-13T03:30:22;15.80;99.90
16479;DHT22;8350;52.316;10.530;2023-07-13T03:32:49;15.90;99.90
16479;DHT22;8350;52.316;10.530;2023-07-13T03:35:16;15.80;99.90
16479;DHT22;8350;52.316;10.530;2023-07-13T03:37:43;15.90;99.90
16479;DHT22;8350;52.316;10.530;2023-07-13T03:40:12;15.90;99.90
16479;DHT22;8350;52.316;10.530;2023-07-13T03:42:39;15.90;99.90
16479;DHT22;8350;52.316;10.530;2023-07-13T03:45:07;15.90;99.90
16479;DHT22;8350;52.316;10.530;2023-07-13T03:47:34;15.90;99.90
16479;DHT22;8350;52.316;10.530;2023-07-13T03:50:01;15.90;99.90
16479;DHT22;8350;52.316;10.530;2023-07-13T03:52:31;15.90;99.90
16479;DHT22;8350;52.316;10.530;2023-07-13T03:54:58;15.90;99.90
16479;DHT22;8350;52.316;10.530;2023-07-13T03:57:26;15.90;99.90
16479;DHT22;8350;52.316;10.530;2023-07-13T03:59:53;15.90;99.90
16479;DHT22;8350;52.316;10.530;2023-07-13T04:02:20;16.00;99.90
16479;DHT22;8350;52.316;10.530;2023-07-13T04:04:47;16.10;99.90
16479;DHT22;8350;52.316;10.530;2023-07-13T04:07:14;16.10;99.90
16479;DHT22;8350;52.316;10.530;2023-07-13T04:09:41;16.20;99.90
16479;DHT22;8350;52.316;10.530;2023-07-13T04:12:08;16.20;99.90
16479;DHT22;8350;52.316;10.530;2023-07-13T04:14:37;16.30;99.90
16479;DHT22;8350;52.316;10.530;2023-07-13T04:17:05;16.30;99.90
16479;DHT22;8350;52.316;10.530;2023-07-13T04:19:32;16.30;99.90
16479;DHT22;8350;52.316;10.530;2023-07-13T04:21:59;16.40;99.90
16479;DHT22;8350;52.316;10.530;2023-07-13T04:24:30;16.40;99.90
16479;DHT22;8350;52.316;10.530;2023-07-13T04:26:57;16.40;99.90
16479;DHT22;8350;52.316;10.530;2023-07-13T04:29:27;16.40;99.90
16479;DHT22;8350;52.316;10.530;2023-07-13T04:31:57;16.60;99.90
16479;DHT22;8350;52.316;10.530;2023-07-13T04:34:24;16.80;99.90
16479;DHT22;8350;52.316;10.530;2023-07-13T04:36:50;16.80;99.90
16479;DHT22;8350;52.316;10.530;2023-07-13T04:39:17;16.80;99.90
16479;DHT22;8350;52.316;10.530;2023-07-13T04:41:44;16.90;99.90
16479;DHT22;8350;52.316;10.530;2023-07-13T04:44:11;16.80;99.90
16479;DHT22;8350;52.316;10.530;2023-07-13T04:46:38;16.90;99.90
16479;DHT22;8350;52.316;10.530;2023-07-13T04:49:06;17.00;99.90
16479;DHT22;8350;52.316;10.530;2023-07-13T04:51:33;17.10;99.90
16479;DHT22;8350;52.316;10.530;2023-07-13T04:54:00;17.10;99.90
16479;DHT22;8350;52.316;10.530;2023-07-13T04:56:27;17.20;99.90
16479;DHT22;8350;52.316;10.530;2023-07-13T04:58:54;17.20;99.90
16479;DHT22;8350;52.316;10.530;2023-07-13T05:01:21;17.20;99.90
16479;DHT22;8350;52.316;10.530;2023-07-13T05:03:51;17.40;99.90
16479;DHT22;8350;52.316;10.530;2023-07-13T05:06:20;17.80;99.90
16479;DHT22;8350;52.316;10.530;2023-07-13T05:08:47;18.10;99.90
16479;DHT22;8350;52.316;10.530;2023-07-13T05:11:14;18.70;99.90
16479;DHT22;8350;52.316;10.530;2023-07-13T05:13:41;19.00;99.90
16479;DHT22;8350;52.316;10.530;2023-07-13T05:16:08;19.00;99.90
16479;DHT22;8350;52.316;10.530;2023-07-13T05:18:35;18.80;99.90
16479;DHT22;8350;52.316;10.530;2023-07-13T05:21:03;18.60;99.90
16479;DHT22;8350;52.316;10.530;2023-07-13T05:23:36;18.50;99.90
16479;DHT22;8350;52.316;10.530;2023-07-13T05:26:07;18.60;99.90
16479;DHT22;8350;52.316;10.530;2023-07-13T05:28:34;18.50;99.90
16479;DHT22;8350;52.316;10.530;2023-07-13T05:31:01;18.50;99.90
16479;DHT22;8350;52.316;10.530;2023-07-13T05:33:27;18.40;99.90
16479;DHT22;8350;52.316;10.530;2023-07-13T05:35:54;18.30;99.90
16479;DHT22;8350;52.316;10.530;2023-07-13T05:38:23;18.30;99.90
16479;DHT22;8350;52.316;10.530;2023-07-13T05:40:53;18.30;99.90
16479;DHT22;8350;52.316;10.530;2023-07-13T05:43:20;18.40;99.90
16479;DHT22;8350;52.316;10.530;2023-07-13T05:45:48;18.50;99.90
16479;DHT22;8350;52.316;10.530;2023-07-13T05:48:15;18.90;99.90
16479;DHT22;8350;52.316;10.530;2023-07-13T05:50:42;19.20;99.90
16479;DHT22;8350;52.316;10.530;2023-07-13T05:53:11;19.50;99.90
16479;DHT22;8350;52.316;10.530;2023-07-13T05:55:41;19.70;99.90
16479;DHT22;8350;52.316;10.530;2023-07-13T05:58:10;19.60;99.90
16479;DHT22;8350;52.316;10.530;2023-07-13T06:00:37;19.50;99.90
16479;DHT22;8350;52.316;10.530;2023-07-13T06:03:05;19.40;99.90
16479;DHT22;8350;52.316;10.530;2023-07-13T06:05:32;19.40;99.90
16479;DHT22;8350;52.316;10.530;2023-07-13T06:08:00;19.40;99.90
16479;DHT22;8350;52.316;10.530;2023-07-13T06:10:27;19.40;99.90
16479;DHT22;8350;52.316;10.530;2023-07-13T06:12:53;19.50;99.90
16479;DHT22;8350;52.316;10.530;2023-07-13T06:15:22;19.60;99.90
16479;DHT22;8350;52.316;10.530;2023-07-13T06:17:51;19.60;99.90
16479;DHT22;8350;52.316;10.530;2023-07-13T06:20:18;19.80;99.90
16479;DHT22;8350;52.316;10.530;2023-07-13T06:22:45;19.80;99.90
16479;DHT22;8350;52.316;10.530;2023-07-13T06:25:21;19.70;99.90
16479;DHT22;8350;52.316;10.530;2023-07-13T06:27:48;20.20;99.90
16479;DHT22;8350;52.316;10.530;2023-07-13T06:30:15;20.70;99.90
16479;DHT22;8350;52.316;10.530;2023-07-13T06:32:43;21.20;99.90
16479;DHT22;8350;52.316;10.530;2023-07-13T06:35:10;21.60;99.90
16479;DHT22;8350;52.316;10.530;2023-07-13T06:37:42;21.70;99.90
16479;DHT22;8350;52.316;10.530;2023-07-13T06:40:09;21.90;99.90
16479;DHT22;8350;52.316;10.530;2023-07-13T06:42:36;22.10;99.90
16479;DHT22;8350;52.316;10.530;2023-07-13T06:45:10;21.90;99.90
16479;DHT22;8350;52.316;10.530;2023-07-13T06:47:36;22.20;99.90
16479;DHT22;8350;52.316;10.530;2023-07-13T06:50:09;21.90;99.90
16479;DHT22;8350;52.316;10.530;2023-07-13T06:52:36;21.80;99.90
16479;DHT22;8350;52.316;10.530;2023-07-13T06:55:03;21.90;99.90
16479;DHT22;8350;52.316;10.530;2023-07-13T06:57:30;22.20;99.90
16479;DHT22;8350;52.316;10.530;2023-07-13T06:59:57;22.40;99.90
16479;DHT22;8350;52.316;10.530;2023-07-13T07:02:24;22.30;99.90
16479;DHT22;8350;52.316;10.530;2023-07-13T07:04:51;22.20;99.90
16479;DHT22;8350;52.316;10.530;2023-07-13T07:07:23;22.30;99.90
16479;DHT22;8350;52.316;10.530;2023-07-13T07:09:50;21.80;99.90
16479;DHT22;8350;52.316;10.530;2023-07-13T07:12:17;21.90;99.90
16479;DHT22;8350;52.316;10.530;2023-07-13T07:14:44;22.30;99.90
16479;DHT22;8350;52.316;10.530;2023-07-13T07:17:11;22.60;99.90
16479;DHT22;8350;52.316;10.530;2023-07-13T07:19:38;22.70;99.90
16479;DHT22;8350;52.316;10.530;2023-07-13T07:22:09;22.60;99.90
16479;DHT22;8350;52.316;10.530;2023-07-13T07:24:37;22.50;99.90
16479;DHT22;8350;52.316;10.530;2023-07-13T07:27:04;22.50;99.90
16479;DHT22;8350;52.316;10.530;2023-07-13T07:29:31;22.70;99.90
16479;DHT22;8350;52.316;10.530;2023-07-13T07:31:59;22.60;99.90
16479;DHT22;8350;52.316;10.530;2023-07-13T07:34:26;22.30;99.90
16479;DHT22;8350;52.316;10.530;2023-07-13T07:36:58;22.30;99.90
16479;DHT22;8350;52.316;10.530;2023-07-13T07:39:25;22.70;99.90
16479;DHT22;8350;52.316;10.530;2023-07-13T07:41:54;22.50;99.90
16479;DHT22;8350;52.316;10.530;2023-07-13T07:44:21;22.40;99.90
16479;DHT22;8350;52.316;10.530;2023-07-13T07:46:48;22.50;99.90
16479;DHT22;8350;52.316;10.530;2023-07-13T07:49:15;22.80;99.90
16479;DHT22;8350;52.316;10.530;2023-07-13T07:51:42;22.90;99.90
16479;DHT22;8350;52.316;10.530;2023-07-13T07:54:09;23.00;99.90
16479;DHT22;8350;52.316;10.530;2023-07-13T07:56:36;22.90;99.90
16479;DHT22;8350;52.316;10.530;2023-07-13T07:59:04;22.70;99.90
16479;DHT22;8350;52.316;10.530;2023-07-13T08:01:31;22.60;99.90
16479;DHT22;8350;52.316;10.530;2023-07-13T08:03:58;22.50;99.90
16479;DHT22;8350;52.316;10.530;2023-07-13T08:06:25;22.50;99.90
16479;DHT22;8350;52.316;10.530;2023-07-13T08:08:52;22.40;99.90
16479;DHT22;8350;52.316;10.530;2023-07-13T08:11:20;22.80;99.90
16479;DHT22;8350;52.316;10.530;2023-07-13T08:13:47;22.70;99.90
16479;DHT22;8350;52.316;10.530;2023-07-13T08:16:15;22.90;99.90
16479;DHT22;8350;52.316;10.530;2023-07-13T08:18:42;23.10;99.90
16479;DHT22;8350;52.316;10.530;2023-07-13T08:21:09;22.80;99.90
16479;DHT22;8350;52.316;10.530;2023-07-13T08:23:36;22.80;99.90
16479;DHT22;8350;52.316;10.530;2023-07-13T08:26:04;22.50;99.90
16479;DHT22;8350;52.316;10.530;2023-07-13T08:28:32;22.20;99.90
16479;DHT22;8350;52.316;10.530;2023-07-13T08:31:12;22.40;99.90
16479;DHT22;8350;52.316;10.530;2023-07-13T08:33:40;22.60;99.90
16479;DHT22;8350;52.316;10.530;2023-07-13T08:36:07;22.70;99.90
16479;DHT22;8350;52.316;10.530;2023-07-13T08:38:34;22.90;99.90
16479;DHT22;8350;52.316;10.530;2023-07-13T08:41:10;23.20;99.90
16479;DHT22;8350;52.316;10.530;2023-07-13T08:43:38;23.00;99.90
16479;DHT22;8350;52.316;10.530;2023-07-13T08:46:08;23.10;99.90
16479;DHT22;8350;52.316;10.530;2023-07-13T08:48:41;23.10;99.90
16479;DHT22;8350;52.316;10.530;2023-07-13T08:51:17;23.30;99.90
16479;DHT22;8350;52.316;10.530;2023-07-13T08:53:53;23.40;99.90
16479;DHT22;8350;52.316;10.530;2023-07-13T08:56:24;23.30;99.90
16479;DHT22;8350;52.316;10.530;2023-07-13T08:58:56;23.00;99.90
16479;DHT22;8350;52.316;10.530;2023-07-13T09:01:29;22.80;99.90
16479;DHT22;8350;52.316;10.530;2023-07-13T09:04:04;22.70;99.90
16479;DHT22;8350;52.316;10.530;2023-07-13T09:06:39;22.60;99.90
16479;DHT22;8350;52.316;10.530;2023-07-13T09:09:13;22.70;99.90
16479;DHT22;8350;52.316;10.530;2023-07-13T09:11:49;22.90;99.90
16479;DHT22;8350;52.316;10.530;2023-07-13T09:14:39;23.40;99.90
16479;DHT22;8350;52.316;10.530;2023-07-13T09:17:14;23.90;99.90
16479;DHT22;8350;52.316;10.530;2023-07-13T09:19:47;23.70;99.90
16479;DHT22;8350;52.316;10.530;2023-07-13T09:22:19;23.50;99.90
16479;DHT22;8350;52.316;10.530;2023-07-13T09:25:01;23.30;99.90
16479;DHT22;8350;52.316;10.530;2023-07-13T09:27:35;23.40;99.90
16479;DHT22;8350;52.316;10.530;2023-07-13T09:30:23;23.50;99.90
16479;DHT22;8350;52.316;10.530;2023-07-13T09:32:53;23.60;99.90
16479;DHT22;8350;52.316;10.530;2023-07-13T09:35:25;23.80;99.90
16479;DHT22;8350;52.316;10.530;2023-07-13T09:38:04;23.80;99.90
16479;DHT22;8350;52.316;10.530;2023-07-13T09:43:25;23.80;99.90
16479;DHT22;8350;52.316;10.530;2023-07-13T09:45:54;24.00;99.90
16479;DHT22;8350;52.316;10.530;2023-07-13T09:48:22;24.40;99.90
16479;DHT22;8350;52.316;10.530;2023-07-13T09:50:54;24.80;99.90
16479;DHT22;8350;52.316;10.530;2023-07-13T09:53:22;24.60;99.90
16479;DHT22;8350;52.316;10.530;2023-07-13T09:55:50;24.70;99.90
16479;DHT22;8350;52.316;10.530;2023-07-13T09:58:18;24.40;99.90
16479;DHT22;8350;52.316;10.530;2023-07-13T10:00:55;24.50;99.90
16479;DHT22;8350;52.316;10.530;2023-07-13T10:03:26;24.60;99.90
16479;DHT22;8350;52.316;10.530;2023-07-13T10:06:03;24.40;99.90
16479;DHT22;8350;52.316;10.530;2023-07-13T10:08:31;24.60;99.90
16479;DHT22;8350;52.316;10.530;2023-07-13T10:11:09;24.40;99.90
16479;DHT22;8350;52.316;10.530;2023-07-13T10:13:39;24.30;99.90
16479;DHT22;8350;52.316;10.530;2023-07-13T10:16:09;24.00;99.90
16479;DHT22;8350;52.316;10.530;2023-07-13T10:18:41;24.00;99.90
16479;DHT22;8350;52.316;10.530;2023-07-13T10:21:14;24.40;99.90
16479;DHT22;8350;52.316;10.530;2023-07-13T10:23:42;24.60;99.90
16479;DHT22;8350;52.316;10.530;2023-07-13T10:26:19;24.70;99.90
16479;DHT22;8350;52.316;10.530;2023-07-13T10:28:52;24.30;99.90
16479;DHT22;8350;52.316;10.530;2023-07-13T10:31:22;23.60;99.90
16479;DHT22;8350;52.316;10.530;2023-07-13T10:33:50;23.40;99.90
16479;DHT22;8350;52.316;10.530;2023-07-13T10:36:28;23.40;99.90
16479;DHT22;8350;52.316;10.530;2023-07-13T10:38:58;23.60;99.90
16479;DHT22;8350;52.316;10.530;2023-07-13T10:41:27;23.80;99.90
16479;DHT22;8350;52.316;10.530;2023-07-13T10:43:56;24.10;99.90
16479;DHT22;8350;52.316;10.530;2023-07-13T10:46:25;24.30;99.90
16479;DHT22;8350;52.316;10.530;2023-07-13T10:48:56;24.60;99.90
16479;DHT22;8350;52.316;10.530;2023-07-13T10:51:25;24.80;99.90
16479;DHT22;8350;52.316;10.530;2023-07-13T10:54:17;24.80;99.90
16479;DHT22;8350;52.316;10.530;2023-07-13T10:56:45;24.90;99.90
16479;DHT22;8350;52.316;10.530;2023-07-13T10:59:15;24.80;99.90
16479;DHT22;8350;52.316;10.530;2023-07-13T11:01:55;24.80;99.90
16479;DHT22;8350;52.316;10.530;2023-07-13T11:04:23;24.70;99.90
16479;DHT22;8350;52.316;10.530;2023-07-13T11:06:56;24.50;99.90
16479;DHT22;8350;52.316;10.530;2023-07-13T11:09:36;24.50;99.90
16479;DHT22;8350;52.316;10.530;2023-07-13T11:12:09;24.70;99.90
16479;DHT22;8350;52.316;10.530;2023-07-13T11:14:43;24.60;99.90
16479;DHT22;8350;52.316;10.530;2023-07-13T11:17:33;24.30;99.90
16479;DHT22;8350;52.316;10.530;2023-07-13T11:20:19;23.90;99.90
16479;DHT22;8350;52.316;10.530;2023-07-13T11:26:37;23.60;99.90
16479;DHT22;8350;52.316;10.530;2023-07-13T11:29:08;23.50;99.90
16479;DHT22;8350;52.316;10.530;2023-07-13T11:31:37;23.70;99.90
16479;DHT22;8350;52.316;10.530;2023-07-13T11:34:13;24.40;99.90
16479;DHT22;8350;52.316;10.530;2023-07-13T11:36:43;24.80;99.90
16479;DHT22;8350;52.316;10.530;2023-07-13T11:39:28;25.00;99.90
16479;DHT22;8350;52.316;10.530;2023-07-13T11:41:59;25.20;99.90
16479;DHT22;8350;52.316;10.530;2023-07-13T11:44:29;25.50;99.90
16479;DHT22;8350;52.316;10.530;2023-07-13T11:46:57;25.30;99.90
16479;DHT22;8350;52.316;10.530;2023-07-13T11:49:29;25.60;99.90
16479;DHT22;8350;52.316;10.530;2023-07-13T11:51:57;25.70;99.90
16479;DHT22;8350;52.316;10.530;2023-07-13T11:54:31;25.70;99.90
16479;DHT22;8350;52.316;10.530;2023-07-13T11:57:01;25.80;99.90
16479;DHT22;8350;52.316;10.530;2023-07-13T11:59:32;25.60;99.90
16479;DHT22;8350;52.316;10.530;2023-07-13T12:02:00;25.40;99.90
16479;DHT22;8350;52.316;10.530;2023-07-13T12:04:33;25.60;99.90
16479;DHT22;8350;52.316;10.530;2023-07-13T12:07:05;25.50;99.90
16479;DHT22;8350;52.316;10.530;2023-07-13T12:09:35;25.20;99.90
16479;DHT22;8350;52.316;10.530;2023-07-13T12:12:11;25.50;99.90
16479;DHT22;8350;52.316;10.530;2023-07-13T12:14:39;25.60;99.90
16479;DHT22;8350;52.316;10.530;2023-07-13T12:17:11;25.80;99.90
16479;DHT22;8350;52.316;10.530;2023-07-13T12:19:41;25.80;99.90
16479;DHT22;8350;52.316;10.530;2023-07-13T12:22:11;25.60;99.90
16479;DHT22;8350;52.316;10.530;2023-07-13T12:24:40;25.20;99.90
16479;DHT22;8350;52.316;10.530;2023-07-13T12:27:19;24.80;99.90
16479;DHT22;8350;52.316;10.530;2023-07-13T12:29:50;24.80;99.90
16479;DHT22;8350;52.316;10.530;2023-07-13T12:32:19;25.00;99.90
16479;DHT22;8350;52.316;10.530;2023-07-13T12:34:53;25.60;99.90
16479;DHT22;8350;52.316;10.530;2023-07-13T12:37:22;25.90;99.90
16479;DHT22;8350;52.316;10.530;2023-07-13T12:39:51;26.00;99.90
16479;DHT22;8350;52.316;10.530;2023-07-13T12:42:34;25.90;99.90
16479;DHT22;8350;52.316;10.530;2023-07-13T12:45:03;26.10;99.90
16479;DHT22;8350;52.316;10.530;2023-07-13T12:47:30;26.00;99.90
16479;DHT22;8350;52.316;10.530;2023-07-13T12:49:59;25.90;99.90
16479;DHT22;8350;52.316;10.530;2023-07-13T12:52:30;26.10;99.90
16479;DHT22;8350;52.316;10.530;2023-07-13T12:55:07;26.30;99.90
16479;DHT22;8350;52.316;10.530;2023-07-13T12:57:41;26.60;99.90
16479;DHT22;8350;52.316;10.530;2023-07-13T13:00:27;26.60;99.90
16479;DHT22;8350;52.316;10.530;2023-07-13T13:02:57;26.40;99.90
16479;DHT22;8350;52.316;10.530;2023-07-13T13:05:27;26.50;99.90
16479;DHT22;8350;52.316;10.530;2023-07-13T13:07:55;26.40;99.90
16479;DHT22;8350;52.316;10.530;2023-07-13T13:10:31;26.30;99.90
16479;DHT22;8350;52.316;10.530;2023-07-13T13:12:59;26.50;99.90
16479;DHT22;8350;52.316;10.530;2023-07-13T13:15:26;26.70;99.90
16479;DHT22;8350;52.316;10.530;2023-07-13T13:17:53;26.60;99.90
16479;DHT22;8350;52.316;10.530;2023-07-13T13:20:21;26.60;99.90
16479;DHT22;8350;52.316;10.530;2023-07-13T13:22:51;26.60;99.90
16479;DHT22;8350;52.316;10.530;2023-07-13T13:25:19;26.60;99.90
16479;DHT22;8350;52.316;10.530;2023-07-13T13:27:49;26.50;99.90
16479;DHT22;8350;52.316;10.530;2023-07-13T13:30:18;26.50;99.90
16479;DHT22;8350;52.316;10.530;2023-07-13T13:32:47;26.70;99.90
16479;DHT22;8350;52.316;10.530;2023-07-13T13:35:18;26.90;99.90
16479;DHT22;8350;52.316;10.530;2023-07-13T13:37:46;27.00;99.90
16479;DHT22;8350;52.316;10.530;2023-07-13T13:40:17;26.60;99.90
16479;DHT22;8350;52.316;10.530;2023-07-13T13:42:45;26.40;99.90
16479;DHT22;8350;52.316;10.530;2023-07-13T13:45:13;26.20;99.90
16479;DHT22;8350;52.316;10.530;2023-07-13T13:47:43;26.40;99.90
16479;DHT22;8350;52.316;10.530;2023-07-13T13:50:16;26.50;99.90
16479;DHT22;8350;52.316;10.530;2023-07-13T13:52:44;26.40;99.90
16479;DHT22;8350;52.316;10.530;2023-07-13T13:55:14;26.20;99.90
16479;DHT22;8350;52.316;10.530;2023-07-13T13:57:41;26.00;99.90
16479;DHT22;8350;52.316;10.530;2023-07-13T14:00:09;25.90;99.90
16479;DHT22;8350;52.316;10.530;2023-07-13T14:02:42;25.70;99.90
16479;DHT22;8350;52.316;10.530;2023-07-13T14:05:14;25.30;99.90
16479;DHT22;8350;52.316;10.530;2023-07-13T14:07:43;25.00;99.90
16479;DHT22;8350;52.316;10.530;2023-07-13T14:10:12;24.80;99.90
16479;DHT22;8350;52.316;10.530;2023-07-13T14:12:41;24.40;99.90
16479;DHT22;8350;52.316;10.530;2023-07-13T14:15:15;24.10;99.90
16479;DHT22;8350;52.316;10.530;2023-07-13T14:17:45;23.70;99.90
16479;DHT22;8350;52.316;10.530;2023-07-13T14:20:15;23.60;99.90
16479;DHT22;8350;52.316;10.530;2023-07-13T14:22:42;22.50;99.90
16479;DHT22;8350;52.316;10.530;2023-07-13T14:25:11;21.20;99.90
16479;DHT22;8350;52.316;10.530;2023-07-13T14:27:38;20.00;99.90
16479;DHT22;8350;52.316;10.530;2023-07-13T14:30:13;19.10;99.90
16479;DHT22;8350;52.316;10.530;2023-07-13T14:32:41;18.70;99.90
16479;DHT22;8350;52.316;10.530;2023-07-13T14:35:11;18.70;99.90
16479;DHT22;8350;52.316;10.530;2023-07-13T14:37:38;18.70;99.90
16479;DHT22;8350;52.316;10.530;2023-07-13T14:40:13;18.50;99.90
16479;DHT22;8350;52.316;10.530;2023-07-13T14:42:40;18.40;99.90
16479;DHT22;8350;52.316;10.530;2023-07-13T14:45:13;18.20;99.90
16479;DHT22;8350;52.316;10.530;2023-07-13T14:47:41;18.10;99.90
16479;DHT22;8350;52.316;10.530;2023-07-13T14:50:15;18.10;99.90
16479;DHT22;8350;52.316;10.530;2023-07-13T14:52:43;17.90;99.90
16479;DHT22;8350;52.316;10.530;2023-07-13T14:55:11;18.00;99.90
16479;DHT22;8350;52.316;10.530;2023-07-13T14:57:38;18.30;99.90
16479;DHT22;8350;52.316;10.530;2023-07-13T15:00:13;18.50;99.90
16479;DHT22;8350;52.316;10.530;2023-07-13T15:02:45;18.80;99.90
16479;DHT22;8350;52.316;10.530;2023-07-13T15:05:17;18.80;99.90
16479;DHT22;8350;52.316;10.530;2023-07-13T15:07:47;18.70;99.90
16479;DHT22;8350;52.316;10.530;2023-07-13T15:10:17;18.50;99.90
16479;DHT22;8350;52.316;10.530;2023-07-13T15:12:44;18.20;99.90
16479;DHT22;8350;52.316;10.530;2023-07-13T15:15:12;18.20;99.90
16479;DHT22;8350;52.316;10.530;2023-07-13T15:17:43;18.00;99.90
16479;DHT22;8350;52.316;10.530;2023-07-13T15:20:19;18.10;99.90
16479;DHT22;8350;52.316;10.530;2023-07-13T15:22:46;18.10;99.90
16479;DHT22;8350;52.316;10.530;2023-07-13T15:25:17;18.10;99.90
16479;DHT22;8350;52.316;10.530;2023-07-13T15:27:44;18.10;99.90
16479;DHT22;8350;52.316;10.530;2023-07-13T15:30:13;18.10;99.90
16479;DHT22;8350;52.316;10.530;2023-07-13T15:32:41;18.30;99.90
16479;DHT22;8350;52.316;10.530;2023-07-13T15:35:18;18.30;99.90
16479;DHT22;8350;52.316;10.530;2023-07-13T15:37:46;18.20;99.90
16479;DHT22;8350;52.316;10.530;2023-07-13T15:40:14;18.20;99.90
16479;DHT22;8350;52.316;10.530;2023-07-13T15:42:42;18.30;99.90
16479;DHT22;8350;52.316;10.530;2023-07-13T15:45:18;18.40;99.90
16479;DHT22;8350;52.316;10.530;2023-07-13T15:47:46;18.50;99.90
16479;DHT22;8350;52.316;10.530;2023-07-13T15:50:16;18.70;99.90
16479;DHT22;8350;52.316;10.530;2023-07-13T15:52:46;18.70;99.90